createdAt,value
2022-11-25T00:01:26.605Z,11.32
2022-11-25T00:03:55.740Z,19.77
2022-11-25T00:06:25.328Z,13.45
2022-11-25T00:08:56.235Z,22.73
2022-11-25T00:11:23.162Z,18.67
2022-11-25T00:13:50.605Z,19.05
2022-11-25T00:16:19.877Z,11.90
2022-11-25T00:18:48.543Z,15.13
2022-11-25T00:21:17.809Z,24.92
2022-11-25T00:23:45.424Z,18.92
2022-11-25T00:26:14.931Z,25.42
2022-11-25T00:28:43.709Z,21.77
2022-11-25T00:31:13.541Z,20.90
2022-11-25T00:33:40.810Z,14.80
2022-11-25T00:36:30.671Z,18.83
2022-11-25T00:39:11.787Z,26.30
2022-11-25T00:41:57.694Z,21.95
2022-11-25T00:44:37.475Z,26.00
2022-11-25T00:47:06.450Z,22.23
2022-11-25T00:49:33.774Z,19.95
2022-11-25T00:52:00.529Z,18.50
2022-11-25T00:54:28.131Z,15.23
2022-11-25T00:56:54.858Z,24.10
2022-11-25T00:59:21.648Z,28.00
2022-11-25T01:01:48.853Z,20.85
2022-11-25T01:04:16.211Z,16.55
2022-11-25T01:06:43.113Z,19.88
2022-11-25T01:09:12.399Z,23.10
2022-11-25T01:11:39.881Z,28.90
2022-11-25T01:14:07.166Z,26.25
2022-11-25T01:16:33.894Z,17.27
2022-11-25T01:19:01.318Z,16.38
2022-11-25T01:21:33.466Z,17.77
2022-11-25T01:24:01.993Z,20.85
2022-11-25T01:26:29.917Z,27.75
2022-11-25T01:29:02.181Z,20.95
2022-11-25T01:31:31.710Z,21.75
2022-11-25T01:34:01.897Z,13.27
2022-11-25T01:36:29.595Z,21.35
2022-11-25T01:38:58.379Z,23.00
2022-11-25T01:41:28.558Z,29.50
2022-11-25T01:44:15.099Z,26.30
2022-11-25T01:46:56.941Z,25.52
2022-11-25T01:49:44.702Z,18.27
2022-11-25T01:52:35.770Z,21.75
2022-11-25T01:55:09.312Z,18.13
2022-11-25T01:57:54.460Z,21.02
2022-11-25T02:00:21.874Z,18.85
2022-11-25T02:02:50.841Z,17.98
2022-11-25T02:05:21.626Z,19.17
2022-11-25T02:07:51.243Z,20.92
2022-11-25T02:10:25.733Z,26.00
2022-11-25T02:12:53.220Z,20.13
2022-11-25T02:15:20.613Z,15.68
2022-11-25T02:17:47.459Z,17.83
2022-11-25T02:20:17.208Z,18.85
2022-11-25T02:23:02.566Z,20.38
2022-11-25T02:25:38.752Z,19.85
2022-11-25T02:28:15.680Z,16.67
2022-11-25T02:30:44.057Z,28.45
2022-11-25T02:33:11.436Z,21.58
2022-11-25T02:35:41.337Z,17.73
2022-11-25T02:38:20.412Z,25.20
2022-11-25T02:40:51.525Z,10.75
2022-11-25T02:43:19.199Z,24.00
2022-11-25T02:46:03.708Z,17.85
2022-11-25T02:49:06.728Z,21.88
2022-11-25T02:51:21.646Z,20.02
2022-11-25T02:53:48.931Z,22.70
2022-11-25T02:56:23.393Z,29.38
2022-11-25T02:58:50.085Z,25.60
2022-11-25T03:01:17.017Z,9.40
2022-11-25T03:03:43.889Z,17.60
2022-11-25T03:06:10.654Z,22.77
2022-11-25T03:08:38.314Z,20.67
2022-11-25T03:11:08.306Z,23.48
2022-11-25T03:13:35.100Z,16.00
2022-11-25T03:16:03.268Z,14.23
2022-11-25T03:18:30.083Z,22.40
2022-11-25T03:20:56.913Z,19.23
2022-11-25T03:23:25.507Z,20.92
2022-11-25T03:25:54.325Z,16.75
2022-11-25T03:28:21.528Z,23.52
2022-11-25T03:30:48.465Z,20.17
2022-11-25T03:33:15.332Z,17.90
2022-11-25T03:35:42.211Z,21.25
2022-11-25T03:38:08.956Z,22.42
2022-11-25T03:40:37.403Z,27.60
2022-11-25T03:43:05.068Z,22.73
2022-11-25T03:45:31.953Z,18.55
2022-11-25T03:48:02.102Z,19.95
2022-11-25T03:50:28.906Z,16.45
2022-11-25T03:52:55.721Z,19.23
2022-11-25T03:55:22.526Z,16.13
2022-11-25T03:57:50.466Z,28.33
2022-11-25T04:00:18.031Z,18.42
2022-11-25T04:02:45.323Z,14.25
2022-11-25T04:05:14.167Z,18.27
2022-11-25T04:07:41.059Z,12.23
2022-11-25T04:10:09.440Z,16.85
2022-11-25T04:12:48.293Z,17.80
2022-11-25T04:15:19.550Z,8.75
2022-11-25T04:17:50.942Z,12.23
2022-11-25T04:20:18.775Z,14.93
2022-11-25T04:22:51.490Z,10.95
2022-11-25T04:25:19.742Z,17.55
2022-11-25T04:27:47.106Z,16.65
2022-11-25T04:30:16.247Z,13.30
2022-11-25T04:32:44.249Z,6.53
2022-11-25T04:35:13.116Z,7.38
2022-11-25T04:37:43.621Z,10.00
2022-11-25T04:40:11.282Z,8.55
2022-11-25T04:42:39.813Z,6.63
2022-11-25T04:45:24.218Z,5.07
2022-11-25T04:47:53.294Z,7.10
2022-11-25T04:50:23.430Z,5.22
2022-11-25T04:53:10.883Z,9.50
2022-11-25T04:55:39.361Z,8.68
2022-11-25T04:58:11.878Z,4.63
2022-11-25T05:00:40.236Z,7.20
2022-11-25T05:03:08.336Z,7.80
2022-11-25T05:05:39.248Z,5.90
2022-11-25T05:08:06.234Z,7.25
2022-11-25T05:10:33.213Z,9.15
2022-11-25T05:13:00.249Z,5.70
2022-11-25T05:15:26.985Z,6.50
2022-11-25T05:17:54.538Z,4.10
2022-11-25T05:20:36.557Z,7.53
2022-11-25T05:23:03.277Z,8.15
2022-11-25T05:25:30.198Z,8.15
2022-11-25T05:28:09.274Z,4.57
2022-11-25T05:30:36.196Z,6.93
2022-11-25T05:33:02.905Z,7.63
2022-11-25T05:35:29.658Z,9.18
2022-11-25T05:37:56.304Z,4.80
2022-11-25T05:40:23.061Z,8.45
2022-11-25T05:43:00.427Z,6.78
2022-11-25T05:45:28.833Z,10.77
2022-11-25T05:47:56.208Z,9.48
2022-11-25T05:50:25.854Z,10.32
2022-11-25T05:53:17.326Z,7.40
2022-11-25T05:55:45.100Z,6.88
2022-11-25T05:58:24.175Z,4.30
2022-11-25T06:00:54.190Z,10.30
2022-11-25T06:03:29.192Z,6.63
2022-11-25T06:05:56.978Z,4.57
2022-11-25T06:08:23.677Z,7.25
2022-11-25T06:10:50.341Z,7.05
2022-11-25T06:13:17.342Z,9.35
2022-11-25T06:15:45.634Z,6.10
2022-11-25T06:18:17.330Z,6.32
2022-11-25T06:20:44.300Z,6.07
2022-11-25T06:23:11.111Z,4.93
2022-11-25T06:25:38.496Z,8.02
2022-11-25T06:28:13.882Z,8.65
2022-11-25T06:30:44.842Z,7.97
2022-11-25T06:33:25.533Z,5.65
2022-11-25T06:35:52.493Z,15.35
2022-11-25T06:38:19.212Z,6.07
2022-11-25T06:40:45.951Z,7.03
2022-11-25T06:43:12.694Z,9.65
2022-11-25T06:45:39.461Z,7.43
2022-11-25T06:48:06.228Z,6.95
2022-11-25T06:50:32.934Z,7.63
2022-11-25T06:53:01.686Z,5.43
2022-11-25T06:55:28.325Z,7.35
2022-11-25T06:58:08.399Z,9.15
2022-11-25T07:00:41.610Z,7.65
2022-11-25T07:03:08.343Z,8.68
2022-11-25T07:05:35.167Z,6.97
2022-11-25T07:08:01.967Z,10.07
2022-11-25T07:10:28.635Z,10.13
2022-11-25T07:12:55.344Z,5.45
2022-11-25T07:15:22.025Z,8.48
2022-11-25T07:17:48.717Z,8.23
2022-11-25T07:20:15.455Z,9.70
2022-11-25T07:22:42.164Z,5.60
2022-11-25T07:25:09.375Z,6.93
2022-11-25T07:27:36.049Z,10.10
2022-11-25T07:30:54.340Z,10.57
2022-11-25T07:32:49.473Z,7.68
2022-11-25T07:35:16.236Z,11.13
2022-11-25T07:37:43.103Z,8.55
2022-11-25T07:40:10.720Z,9.43
2022-11-25T07:42:37.410Z,5.00
2022-11-25T07:45:04.937Z,10.02
2022-11-25T07:47:44.086Z,11.75
2022-11-25T07:50:11.102Z,9.50
2022-11-25T07:52:39.798Z,8.23
2022-11-25T07:55:06.983Z,9.27
2022-11-25T07:57:33.822Z,12.18
2022-11-25T08:00:00.727Z,10.70
2022-11-25T08:02:27.683Z,11.02
2022-11-25T08:04:54.691Z,8.80
2022-11-25T08:07:21.536Z,13.52
2022-11-25T08:09:48.389Z,10.45
2022-11-25T08:12:15.080Z,8.30
2022-11-25T08:14:41.709Z,14.65
2022-11-25T08:17:08.515Z,9.27
2022-11-25T08:19:36.817Z,10.05
2022-11-25T08:22:03.700Z,9.80
2022-11-25T08:24:30.419Z,7.35
2022-11-25T08:26:58.664Z,9.40
2022-11-25T08:29:25.588Z,11.27
2022-11-25T08:31:52.430Z,10.57
2022-11-25T08:34:22.851Z,16.10
2022-11-25T08:36:53.118Z,13.73
2022-11-25T08:39:50.535Z,9.02
2022-11-25T08:42:08.854Z,12.63
2022-11-25T08:44:36.365Z,9.38
2022-11-25T08:47:03.178Z,13.82
2022-11-25T08:49:32.781Z,7.85
2022-11-25T08:52:03.108Z,12.82
2022-11-25T08:54:30.780Z,10.80
2022-11-25T08:56:57.637Z,8.88
2022-11-25T08:59:25.397Z,13.38
2022-11-25T09:01:52.277Z,12.73
2022-11-25T09:04:19.273Z,11.60
2022-11-25T09:06:46.176Z,8.73
2022-11-25T09:09:12.947Z,12.32
2022-11-25T09:11:39.732Z,11.13
2022-11-25T09:14:06.659Z,16.73
2022-11-25T09:16:33.696Z,6.63
2022-11-25T09:19:00.598Z,8.43
2022-11-25T09:21:27.472Z,11.93
2022-11-25T09:23:54.966Z,13.15
2022-11-25T09:26:27.552Z,9.95
2022-11-25T09:31:22.589Z,9.10
2022-11-25T09:33:49.716Z,9.68
2022-11-25T09:36:20.124Z,13.18
2022-11-25T09:38:47.250Z,22.63
2022-11-25T09:42:06.856Z,7.32
2022-11-25T09:45:06.382Z,10.45
2022-11-25T09:47:48.986Z,10.20
2022-11-25T09:50:53.888Z,10.25
2022-11-25T09:53:41.160Z,6.35
2022-11-25T09:56:19.610Z,9.15
2022-11-25T09:58:56.145Z,10.80
2022-11-25T10:01:26.948Z,10.77
2022-11-25T10:04:04.404Z,7.13
2022-11-25T10:06:43.334Z,13.02
2022-11-25T10:09:15.838Z,10.13
2022-11-25T10:11:52.994Z,8.38
2022-11-25T10:14:32.426Z,8.20
2022-11-25T10:17:28.954Z,10.82
2022-11-25T10:20:30.107Z,14.52
2022-11-25T10:23:28.494Z,10.07
2022-11-25T10:26:03.881Z,9.13
2022-11-25T10:28:33.422Z,10.48
2022-11-25T10:31:22.846Z,11.35
2022-11-25T10:33:53.269Z,10.90
2022-11-25T10:36:33.492Z,13.25
2022-11-25T10:39:15.083Z,11.30
2022-11-25T10:42:03.548Z,11.25
2022-11-25T10:44:36.792Z,6.57
2022-11-25T10:47:34.466Z,10.82
2022-11-25T10:50:14.606Z,8.82
2022-11-25T10:52:48.745Z,12.15
2022-11-25T10:55:21.725Z,11.50
2022-11-25T10:57:48.525Z,11.35
2022-11-25T11:00:36.370Z,13.00
2022-11-25T11:03:25.867Z,10.68
2022-11-25T11:05:54.050Z,11.07
2022-11-25T11:08:27.040Z,8.73
2022-11-25T11:11:12.551Z,8.55
2022-11-25T11:13:39.278Z,7.38
2022-11-25T11:16:23.089Z,13.35
2022-11-25T11:18:51.604Z,9.77
2022-11-25T11:21:30.744Z,10.55
2022-11-25T11:23:57.639Z,9.38
2022-11-25T11:26:28.372Z,10.25
2022-11-25T11:29:01.283Z,10.80
2022-11-25T11:31:35.803Z,12.00
2022-11-25T11:34:39.493Z,9.93
2022-11-25T11:37:30.221Z,12.55
2022-11-25T11:40:37.902Z,11.80
2022-11-25T11:43:16.477Z,12.02
2022-11-25T11:45:58.095Z,10.30
2022-11-25T11:48:53.246Z,12.45
2022-11-25T11:51:29.551Z,11.57
2022-11-25T11:53:56.260Z,10.05
2022-11-25T11:56:36.155Z,14.55
2022-11-25T11:59:31.453Z,13.68
2022-11-25T12:02:31.432Z,14.65
2022-11-25T12:05:10.366Z,10.10
2022-11-25T12:07:39.771Z,11.90
2022-11-25T12:10:34.627Z,12.55
2022-11-25T12:13:13.840Z,16.17
2022-11-25T12:16:09.106Z,14.43
2022-11-25T12:18:44.713Z,12.13
2022-11-25T12:21:41.423Z,10.52
2022-11-25T12:24:27.395Z,11.48
2022-11-25T12:27:16.189Z,9.48
2022-11-25T12:29:49.430Z,9.40
2022-11-25T12:32:40.462Z,13.32
2022-11-25T12:35:10.183Z,6.97
2022-11-25T12:37:45.627Z,15.23
2022-11-25T12:40:30.156Z,12.88
2022-11-25T12:43:06.589Z,16.90
2022-11-25T12:45:33.687Z,13.30
2022-11-25T12:48:00.505Z,10.63
2022-11-25T12:50:47.497Z,11.63
2022-11-25T12:53:39.631Z,13.85
2022-11-25T12:56:16.919Z,8.93
2022-11-25T12:59:21.348Z,21.35
2022-11-25T13:02:13.334Z,14.82
2022-11-25T13:05:25.321Z,14.25
2022-11-25T13:08:08.128Z,10.70
2022-11-25T13:11:19.550Z,12.35
2022-11-25T13:13:53.556Z,10.65
2022-11-25T13:16:22.928Z,12.15
2022-11-25T13:18:50.526Z,8.88
2022-11-25T13:21:18.962Z,16.92
2022-11-25T13:23:50.582Z,14.20
2022-11-25T13:26:37.197Z,11.43
2022-11-25T13:29:27.094Z,11.90
2022-11-25T13:31:59.615Z,13.88
2022-11-25T13:34:34.447Z,12.60
2022-11-25T13:37:21.232Z,9.82
2022-11-25T13:39:48.084Z,10.32
2022-11-25T13:42:26.701Z,12.13
2022-11-25T13:45:00.619Z,11.50
2022-11-25T13:47:43.384Z,10.52
2022-11-25T13:53:01.546Z,9.95
2022-11-25T13:55:37.133Z,20.23
2022-11-25T13:58:09.673Z,18.00
2022-11-25T14:03:24.074Z,13.80
2022-11-25T14:06:12.811Z,13.77
2022-11-25T14:08:58.759Z,15.38
2022-11-25T14:11:33.018Z,11.52
2022-11-25T14:14:24.740Z,20.52
2022-11-25T14:17:07.503Z,19.40
2022-11-25T14:22:36.110Z,10.60
2022-11-25T14:25:26.740Z,18.07
2022-11-25T14:28:17.795Z,13.15
2022-11-25T14:30:53.213Z,11.90
2022-11-25T14:33:38.574Z,21.17
2022-11-25T14:36:12.297Z,14.32
2022-11-25T14:38:45.112Z,15.63
2022-11-25T14:41:18.889Z,15.32
2022-11-25T14:43:54.283Z,14.55
2022-11-25T14:46:23.603Z,18.08
2022-11-25T14:49:02.888Z,15.43
2022-11-25T14:51:38.581Z,15.77
2022-11-25T14:54:09.726Z,14.93
2022-11-25T14:56:37.395Z,24.88
2022-11-25T14:59:04.479Z,20.70
2022-11-25T15:01:33.629Z,15.15
2022-11-25T15:04:12.783Z,14.55
2022-11-25T15:06:45.235Z,16.48
2022-11-25T15:09:25.439Z,20.30
2022-11-25T15:12:01.511Z,15.77
2022-11-25T15:14:38.646Z,15.65
2022-11-25T15:17:17.120Z,21.48
2022-11-25T15:19:43.819Z,14.10
2022-11-25T15:22:25.404Z,16.23
2022-11-25T15:24:55.885Z,15.13
2022-11-25T15:27:28.399Z,15.20
2022-11-25T15:29:57.074Z,16.83
2022-11-25T15:32:27.714Z,20.90
2022-11-25T15:34:57.359Z,13.32
2022-11-25T15:37:24.342Z,19.55
2022-11-25T15:40:29.303Z,18.65
2022-11-25T15:43:00.763Z,17.15
2022-11-25T15:45:33.660Z,20.90
2022-11-25T15:48:00.486Z,22.02
2022-11-25T15:50:28.499Z,18.75
2022-11-25T15:52:58.533Z,18.13
2022-11-25T15:55:39.674Z,15.30
2022-11-25T15:58:11.276Z,29.65
2022-11-25T16:00:41.573Z,20.17
2022-11-25T16:03:21.573Z,17.77
2022-11-25T16:05:56.017Z,13.07
2022-11-25T16:08:35.782Z,21.40
2022-11-25T16:11:15.210Z,22.17
2022-11-25T16:13:42.186Z,12.15
2022-11-25T16:16:18.049Z,17.23
2022-11-25T16:19:02.468Z,19.88
2022-11-25T16:21:35.146Z,20.30
2022-11-25T16:24:32.403Z,15.60
2022-11-25T16:27:06.619Z,14.98
2022-11-25T16:30:01.229Z,19.65
2022-11-25T16:32:30.354Z,21.70
2022-11-25T16:35:10.082Z,20.77
2022-11-25T16:37:36.840Z,20.33
2022-11-25T16:40:05.062Z,17.17
2022-11-25T16:42:32.619Z,25.38
2022-11-25T16:45:01.302Z,25.25
2022-11-25T16:47:27.996Z,23.13
2022-11-25T16:49:54.757Z,24.65
2022-11-25T16:52:21.894Z,17.95
2022-11-25T16:54:48.999Z,23.48
2022-11-25T16:57:21.888Z,19.23
2022-11-25T16:59:53.249Z,22.20
2022-11-25T17:02:23.104Z,17.60
2022-11-25T17:04:50.193Z,20.80
2022-11-25T17:07:34.677Z,26.60
2022-11-25T17:10:01.809Z,18.23
2022-11-25T17:12:32.255Z,24.77
2022-11-25T17:15:00.286Z,28.80
2022-11-25T17:17:27.980Z,33.72
2022-11-25T17:19:55.038Z,24.42
2022-11-25T17:22:24.961Z,32.78
2022-11-25T17:24:51.892Z,22.80
2022-11-25T17:27:29.814Z,20.77
2022-11-25T17:29:58.948Z,21.52
2022-11-25T17:32:26.653Z,15.52
2022-11-25T17:34:53.714Z,20.73
2022-11-25T17:37:24.594Z,25.48
2022-11-25T17:39:53.750Z,23.90
2022-11-25T17:42:30.530Z,23.75
2022-11-25T17:44:57.820Z,22.17
2022-11-25T17:47:24.596Z,19.73
2022-11-25T17:49:51.981Z,18.55
2022-11-25T17:52:18.842Z,22.75
2022-11-25T17:54:45.631Z,23.50
2022-11-25T17:57:19.786Z,21.50
2022-11-25T17:59:46.774Z,20.88
2022-11-25T18:02:22.222Z,28.90
2022-11-25T18:04:49.713Z,29.30
2022-11-25T18:07:17.140Z,36.08
2022-11-25T18:09:44.688Z,38.40
2022-11-25T18:12:27.697Z,26.52
2022-11-25T18:14:55.772Z,31.20
2022-11-25T18:17:22.733Z,27.27
2022-11-25T18:19:54.473Z,27.58
2022-11-25T18:22:24.170Z,21.90
2022-11-25T18:24:53.891Z,21.92
2022-11-25T18:27:26.966Z,23.15
2022-11-25T18:29:54.538Z,23.92
2022-11-25T18:32:23.456Z,25.60
2022-11-25T18:34:51.062Z,19.15
2022-11-25T18:37:18.043Z,21.08
2022-11-25T18:39:44.804Z,19.63
2022-11-25T18:42:33.758Z,22.80
2022-11-25T18:45:01.138Z,18.92
2022-11-25T18:47:27.975Z,20.98
2022-11-25T18:49:56.382Z,26.08
2022-11-25T18:52:24.838Z,22.17
2022-11-25T18:54:51.791Z,24.48
2022-11-25T18:57:18.790Z,26.60
2022-11-25T18:59:49.985Z,24.45
2022-11-25T19:02:23.180Z,33.17
2022-11-25T19:04:50.153Z,37.13
2022-11-25T19:07:16.948Z,31.02
2022-11-25T19:09:43.740Z,32.60
2022-11-25T19:12:17.386Z,38.83
2022-11-25T19:14:44.374Z,31.73
2022-11-25T19:17:29.282Z,31.45
2022-11-25T19:19:56.020Z,28.00
2022-11-25T19:22:24.582Z,21.30
2022-11-25T19:24:52.010Z,23.92
2022-11-25T19:27:23.733Z,25.90
2022-11-25T19:29:51.856Z,29.88
2022-11-25T19:32:30.590Z,43.75
2022-11-25T19:35:06.823Z,39.60
2022-11-25T19:37:33.920Z,43.22
2022-11-25T19:40:02.645Z,36.67
2022-11-25T19:42:31.814Z,31.65
2022-11-25T19:44:58.890Z,34.30
2022-11-25T19:47:26.758Z,25.05
2022-11-25T19:49:57.689Z,26.50
2022-11-25T19:52:33.050Z,25.55
2022-11-25T19:54:59.712Z,25.55
2022-11-25T19:57:27.803Z,20.63
2022-11-25T19:59:54.489Z,23.35
2022-11-25T20:02:24.086Z,18.77
2022-11-25T20:04:54.390Z,22.08
2022-11-25T20:07:22.016Z,17.58
2022-11-25T20:09:51.387Z,23.33
2022-11-25T20:12:21.136Z,23.63
2022-11-25T20:14:48.928Z,26.13
2022-11-25T20:17:28.686Z,23.50
2022-11-25T20:19:59.456Z,25.45
2022-11-25T20:22:31.301Z,22.30
2022-11-25T20:24:59.354Z,14.82
2022-11-25T20:27:28.057Z,21.15
2022-11-25T20:29:55.162Z,20.40
2022-11-25T20:32:34.230Z,18.83
2022-11-25T20:35:00.965Z,17.60
2022-11-25T20:37:40.418Z,26.73
2022-11-25T20:40:16.622Z,20.00
2022-11-25T20:42:43.337Z,33.83
2022-11-25T20:45:15.268Z,27.02
2022-11-25T20:47:42.422Z,20.98
2022-11-25T20:50:12.878Z,24.00
2022-11-25T20:52:40.725Z,23.95
2022-11-25T20:55:24.777Z,21.27
2022-11-25T20:57:52.306Z,19.33
2022-11-25T21:00:24.963Z,24.85
2022-11-25T21:05:19.899Z,21.50
2022-11-25T21:07:48.600Z,21.95
2022-11-25T21:10:34.887Z,20.63
2022-11-25T21:13:08.211Z,19.75
2022-11-25T21:15:35.022Z,31.05
2022-11-25T21:18:01.875Z,26.38
2022-11-25T21:20:28.665Z,34.83
2022-11-25T21:22:58.425Z,60.85
2022-11-25T21:25:25.552Z,74.78
2022-11-25T21:27:52.667Z,50.92
2022-11-25T21:30:25.195Z,40.17
2022-11-25T21:32:56.867Z,29.63
2022-11-25T21:35:32.415Z,26.20
2022-11-25T21:38:03.478Z,21.35
2022-11-25T21:40:40.583Z,22.27
2022-11-25T21:43:19.820Z,27.67
2022-11-25T21:45:49.295Z,22.10
2022-11-25T21:48:20.939Z,18.65
2022-11-25T21:50:48.109Z,20.45
2022-11-25T21:53:15.230Z,21.25
2022-11-25T21:55:43.429Z,23.60
2022-11-25T21:58:28.691Z,23.17
2022-11-25T22:01:01.565Z,19.15
2022-11-25T22:03:30.897Z,24.55
2022-11-25T22:05:57.793Z,22.60
2022-11-25T22:08:24.512Z,19.88
2022-11-25T22:10:53.623Z,21.73
2022-11-25T22:13:38.580Z,24.80
2022-11-25T22:16:05.905Z,15.90
2022-11-25T22:18:35.337Z,28.38
2022-11-25T22:21:03.215Z,14.63
2022-11-25T22:23:29.979Z,14.90
2022-11-25T22:25:57.694Z,19.95
2022-11-25T22:28:29.708Z,24.40
2022-11-25T22:31:00.345Z,16.90
2022-11-25T22:33:34.129Z,23.55
2022-11-25T22:36:01.794Z,21.65
2022-11-25T22:38:29.886Z,20.10
2022-11-25T22:41:00.311Z,20.00
2022-11-25T22:43:34.107Z,21.42
2022-11-25T22:46:01.002Z,19.30
2022-11-25T22:48:34.238Z,30.63
2022-11-25T22:51:03.101Z,18.65
2022-11-25T22:53:29.936Z,20.20
2022-11-25T22:55:58.046Z,19.88
2022-11-25T22:58:28.309Z,24.30
2022-11-25T23:00:56.638Z,19.00
2022-11-25T23:03:29.982Z,23.83
2022-11-25T23:05:57.215Z,28.88
2022-11-25T23:08:28.823Z,18.42
2022-11-25T23:10:56.605Z,19.17
2022-11-25T23:13:24.182Z,16.55
2022-11-25T23:15:56.498Z,21.48
2022-11-25T23:18:45.776Z,15.98
2022-11-25T23:21:24.295Z,21.35
2022-11-25T23:23:51.334Z,17.05
2022-11-25T23:26:18.111Z,18.02
2022-11-25T23:28:44.850Z,29.23
2022-11-25T23:31:16.489Z,19.20
2022-11-25T23:33:48.477Z,18.10
2022-11-25T23:36:25.622Z,23.02
2022-11-25T23:38:58.224Z,26.10
2022-11-25T23:43:53.724Z,17.50
2022-11-25T23:46:24.280Z,20.27
2022-11-25T23:48:57.297Z,20.75
2022-11-25T23:51:25.377Z,28.80
2022-11-25T23:53:52.910Z,20.35
2022-11-25T23:56:19.835Z,20.13
2022-11-25T23:58:46.607Z,15.65
